sensor_id;sensor_type;location;lat;lon;timestamp;pressure;altitude;pressure_sealevel;temperature;humidity
10946;BME280;5525;42.648;23.368;2023-05-08T00:00:27;94805.34;;;13.79;100.00
10946;BME280;5525;42.648;23.368;2023-05-08T00:02:53;94801.84;;;13.66;100.00
10946;BME280;5525;42.648;23.368;2023-05-08T00:05:20;94813.03;;;13.65;100.00
10946;BME280;5525;42.648;23.368;2023-05-08T00:07:47;94809.19;;;13.66;100.00
10946;BME280;5525;42.648;23.368;2023-05-08T00:10:16;94802.31;;;13.56;100.00
10946;BME280;5525;42.648;23.368;2023-05-08T00:12:43;94789.31;;;13.37;100.00
10946;BME280;5525;42.648;23.368;2023-05-08T00:15:10;94810.13;;;13.57;100.00
10946;BME280;5525;42.648;23.368;2023-05-08T00:17:36;94820.72;;;13.50;100.00
10946;BME280;5525;42.648;23.368;2023-05-08T00:20:04;94822.53;;;13.46;100.00
10946;BME280;5525;42.648;23.368;2023-05-08T00:22:33;94815.50;;;13.33;100.00
10946;BME280;5525;42.648;23.368;2023-05-08T00:24:59;94818.88;;;13.18;100.00
10946;BME280;5525;42.648;23.368;2023-05-08T00:27:28;94815.69;;;13.16;100.00
10946;BME280;5525;42.648;23.368;2023-05-08T00:29:55;94816.81;;;13.03;100.00
10946;BME280;5525;42.648;23.368;2023-05-08T00:32:21;94825.28;;;13.02;100.00
10946;BME280;5525;42.648;23.368;2023-05-08T00:34:50;94828.63;;;12.99;100.00
10946;BME280;5525;42.648;23.368;2023-05-08T00:37:17;94827.34;;;12.96;100.00
10946;BME280;5525;42.648;23.368;2023-05-08T00:39:43;94828.94;;;12.85;100.00
10946;BME280;5525;42.648;23.368;2023-05-08T00:42:10;94833.28;;;12.78;100.00
10946;BME280;5525;42.648;23.368;2023-05-08T00:44:38;94824.09;;;12.70;100.00
10946;BME280;5525;42.648;23.368;2023-05-08T00:47:05;94823.53;;;12.65;100.00
10946;BME280;5525;42.648;23.368;2023-05-08T00:49:33;94824.00;;;12.67;100.00
10946;BME280;5525;42.648;23.368;2023-05-08T00:52:01;94822.41;;;12.66;100.00
10946;BME280;5525;42.648;23.368;2023-05-08T00:54:28;94825.56;;;12.68;100.00
10946;BME280;5525;42.648;23.368;2023-05-08T00:56:55;94833.13;;;12.62;100.00
10946;BME280;5525;42.648;23.368;2023-05-08T00:59:23;94827.38;;;12.64;100.00
10946;BME280;5525;42.648;23.368;2023-05-08T01:01:52;94826.63;;;12.55;100.00
10946;BME280;5525;42.648;23.368;2023-05-08T01:04:20;94831.28;;;12.54;100.00
10946;BME280;5525;42.648;23.368;2023-05-08T01:06:49;94833.47;;;12.61;100.00
10946;BME280;5525;42.648;23.368;2023-05-08T01:09:16;94838.34;;;12.47;100.00
10946;BME280;5525;42.648;23.368;2023-05-08T01:11:47;94821.22;;;12.14;100.00
10946;BME280;5525;42.648;23.368;2023-05-08T01:14:19;94830.53;;;12.04;100.00
10946;BME280;5525;42.648;23.368;2023-05-08T01:16:55;94843.28;;;12.04;100.00
10946;BME280;5525;42.648;23.368;2023-05-08T01:19:37;94844.59;;;11.98;100.00
10946;BME280;5525;42.648;23.368;2023-05-08T01:22:12;94849.63;;;11.78;100.00
10946;BME280;5525;42.648;23.368;2023-05-08T01:25:16;94847.84;;;11.36;100.00
10946;BME280;5525;42.648;23.368;2023-05-08T01:28:05;94843.09;;;11.42;100.00
10946;BME280;5525;42.648;23.368;2023-05-08T01:30:58;94849.97;;;11.31;100.00
10946;BME280;5525;42.648;23.368;2023-05-08T01:33:32;94843.03;;;11.13;100.00
10946;BME280;5525;42.648;23.368;2023-05-08T01:36:14;94840.00;;;11.14;100.00
10946;BME280;5525;42.648;23.368;2023-05-08T01:38:49;94843.44;;;11.32;100.00
10946;BME280;5525;42.648;23.368;2023-05-08T01:41:24;94848.16;;;11.43;100.00
10946;BME280;5525;42.648;23.368;2023-05-08T01:43:56;94843.03;;;11.50;100.00
10946;BME280;5525;42.648;23.368;2023-05-08T01:46:26;94839.25;;;11.51;100.00
10946;BME280;5525;42.648;23.368;2023-05-08T01:48:59;94838.09;;;11.52;100.00
10946;BME280;5525;42.648;23.368;2023-05-08T01:51:36;94836.06;;;11.49;100.00
10946;BME280;5525;42.648;23.368;2023-05-08T01:54:07;94839.25;;;11.51;100.00
10946;BME280;5525;42.648;23.368;2023-05-08T01:56:36;94829.66;;;11.54;100.00
10946;BME280;5525;42.648;23.368;2023-05-08T01:59:05;94832.69;;;11.52;100.00
10946;BME280;5525;42.648;23.368;2023-05-08T02:01:33;94834.59;;;11.52;100.00
10946;BME280;5525;42.648;23.368;2023-05-08T02:04:02;94835.25;;;11.49;100.00
10946;BME280;5525;42.648;23.368;2023-05-08T02:06:32;94838.38;;;11.22;100.00
10946;BME280;5525;42.648;23.368;2023-05-08T02:09:00;94835.22;;;11.20;100.00
10946;BME280;5525;42.648;23.368;2023-05-08T02:11:28;94842.03;;;11.26;100.00
10946;BME280;5525;42.648;23.368;2023-05-08T02:13:57;94834.22;;;11.33;100.00
10946;BME280;5525;42.648;23.368;2023-05-08T02:16:25;94835.47;;;11.35;100.00
10946;BME280;5525;42.648;23.368;2023-05-08T02:18:54;94832.13;;;11.38;100.00
10946;BME280;5525;42.648;23.368;2023-05-08T02:21:22;94842.59;;;11.40;100.00
10946;BME280;5525;42.648;23.368;2023-05-08T02:23:50;94848.50;;;11.33;100.00
10946;BME280;5525;42.648;23.368;2023-05-08T02:26:17;94845.47;;;11.35;100.00
10946;BME280;5525;42.648;23.368;2023-05-08T02:28:46;94839.16;;;11.31;100.00
10946;BME280;5525;42.648;23.368;2023-05-08T02:31:15;94841.91;;;11.22;100.00
10946;BME280;5525;42.648;23.368;2023-05-08T02:33:43;94841.06;;;11.30;100.00
10946;BME280;5525;42.648;23.368;2023-05-08T02:36:14;94847.09;;;11.27;100.00
10946;BME280;5525;42.648;23.368;2023-05-08T02:38:43;94831.53;;;11.24;100.00
10946;BME280;5525;42.648;23.368;2023-05-08T02:41:12;94835.69;;;11.22;100.00
10946;BME280;5525;42.648;23.368;2023-05-08T02:43:40;94848.19;;;11.35;100.00
10946;BME280;5525;42.648;23.368;2023-05-08T02:46:11;94850.13;;;11.34;100.00
10946;BME280;5525;42.648;23.368;2023-05-08T02:48:45;94840.22;;;11.38;100.00
10946;BME280;5525;42.648;23.368;2023-05-08T02:51:17;94832.81;;;11.27;100.00
10946;BME280;5525;42.648;23.368;2023-05-08T02:53:51;94847.75;;;11.33;100.00
10946;BME280;5525;42.648;23.368;2023-05-08T02:56:29;94852.16;;;11.37;100.00
10946;BME280;5525;42.648;23.368;2023-05-08T02:59:00;94852.06;;;11.25;100.00
10946;BME280;5525;42.648;23.368;2023-05-08T03:01:36;94860.81;;;11.22;100.00
10946;BME280;5525;42.648;23.368;2023-05-08T03:04:08;94840.28;;;11.21;100.00
10946;BME280;5525;42.648;23.368;2023-05-08T03:06:39;94849.03;;;11.27;100.00
10946;BME280;5525;42.648;23.368;2023-05-08T03:09:11;94847.09;;;11.36;100.00
10946;BME280;5525;42.648;23.368;2023-05-08T03:11:41;94840.72;;;11.40;100.00
10946;BME280;5525;42.648;23.368;2023-05-08T03:14:11;94852.94;;;11.46;100.00
10946;BME280;5525;42.648;23.368;2023-05-08T03:16:41;94847.09;;;11.36;100.00
10946;BME280;5525;42.648;23.368;2023-05-08T03:19:15;94853.19;;;11.16;100.00
10946;BME280;5525;42.648;23.368;2023-05-08T03:21:45;94859.72;;;11.06;100.00
10946;BME280;5525;42.648;23.368;2023-05-08T03:24:14;94866.91;;;11.02;100.00
10946;BME280;5525;42.648;23.368;2023-05-08T03:26:43;94865.78;;;11.03;100.00
10946;BME280;5525;42.648;23.368;2023-05-08T03:29:12;94872.03;;;10.87;100.00
10946;BME280;5525;42.648;23.368;2023-05-08T03:31:40;94870.88;;;10.96;100.00
10946;BME280;5525;42.648;23.368;2023-05-08T03:34:08;94873.38;;;11.18;100.00
10946;BME280;5525;42.648;23.368;2023-05-08T03:36:37;94861.31;;;11.16;100.00
10946;BME280;5525;42.648;23.368;2023-05-08T03:39:04;94873.56;;;11.05;100.00
10946;BME280;5525;42.648;23.368;2023-05-08T03:41:33;94876.56;;;11.20;100.00
10946;BME280;5525;42.648;23.368;2023-05-08T03:44:01;94870.81;;;11.22;100.00
10946;BME280;5525;42.648;23.368;2023-05-08T03:46:30;94863.16;;;11.32;100.00
10946;BME280;5525;42.648;23.368;2023-05-08T03:48:57;94866.06;;;11.56;100.00
10946;BME280;5525;42.648;23.368;2023-05-08T03:51:25;94857.47;;;11.71;100.00
10946;BME280;5525;42.648;23.368;2023-05-08T03:53:53;94860.38;;;11.87;100.00
10946;BME280;5525;42.648;23.368;2023-05-08T03:56:19;94866.56;;;11.96;100.00
10946;BME280;5525;42.648;23.368;2023-05-08T03:58:53;94873.66;;;11.80;100.00
10946;BME280;5525;42.648;23.368;2023-05-08T04:01:24;94860.06;;;12.38;100.00
10946;BME280;5525;42.648;23.368;2023-05-08T04:04:00;94867.97;;;13.37;100.00
10946;BME280;5525;42.648;23.368;2023-05-08T04:06:32;94871.72;;;13.93;100.00
10946;BME280;5525;42.648;23.368;2023-05-08T04:09:06;94874.69;;;14.00;100.00
10946;BME280;5525;42.648;23.368;2023-05-08T04:11:39;94875.13;;;13.90;100.00
10946;BME280;5525;42.648;23.368;2023-05-08T04:14:13;94883.84;;;14.20;100.00
10946;BME280;5525;42.648;23.368;2023-05-08T04:16:47;94873.19;;;14.51;100.00
10946;BME280;5525;42.648;23.368;2023-05-08T04:19:18;94877.38;;;15.15;100.00
10946;BME280;5525;42.648;23.368;2023-05-08T04:21:47;94882.59;;;15.48;100.00
10946;BME280;5525;42.648;23.368;2023-05-08T04:24:16;94880.34;;;15.38;100.00
10946;BME280;5525;42.648;23.368;2023-05-08T04:26:45;94889.88;;;15.60;100.00
10946;BME280;5525;42.648;23.368;2023-05-08T04:29:13;94868.31;;;15.11;100.00
10946;BME280;5525;42.648;23.368;2023-05-08T04:31:40;94872.59;;;15.99;100.00
10946;BME280;5525;42.648;23.368;2023-05-08T04:34:07;94886.56;;;15.82;100.00
10946;BME280;5525;42.648;23.368;2023-05-08T04:36:34;94886.19;;;15.24;100.00
10946;BME280;5525;42.648;23.368;2023-05-08T04:39:01;94882.75;;;14.72;100.00
10946;BME280;5525;42.648;23.368;2023-05-08T04:41:29;94881.19;;;14.59;100.00
10946;BME280;5525;42.648;23.368;2023-05-08T04:43:56;94878.19;;;15.44;100.00
10946;BME280;5525;42.648;23.368;2023-05-08T04:46:24;94876.56;;;16.51;100.00
10946;BME280;5525;42.648;23.368;2023-05-08T04:48:51;94874.41;;;16.10;100.00
10946;BME280;5525;42.648;23.368;2023-05-08T04:51:17;94872.34;;;17.08;100.00
10946;BME280;5525;42.648;23.368;2023-05-08T04:53:44;94868.56;;;17.35;100.00
10946;BME280;5525;42.648;23.368;2023-05-08T04:56:11;94866.91;;;16.54;100.00
10946;BME280;5525;42.648;23.368;2023-05-08T04:58:38;94863.31;;;16.34;100.00
10946;BME280;5525;42.648;23.368;2023-05-08T05:01:04;94869.22;;;17.47;100.00
10946;BME280;5525;42.648;23.368;2023-05-08T05:03:32;94864.78;;;18.03;100.00
10946;BME280;5525;42.648;23.368;2023-05-08T05:06:00;94864.75;;;17.81;100.00
10946;BME280;5525;42.648;23.368;2023-05-08T05:08:26;94863.31;;;18.09;98.71
10946;BME280;5525;42.648;23.368;2023-05-08T05:10:53;94868.09;;;18.94;92.17
10946;BME280;5525;42.648;23.368;2023-05-08T05:13:20;94858.09;;;18.76;90.88
10946;BME280;5525;42.648;23.368;2023-05-08T05:15:46;94865.41;;;19.64;85.14
10946;BME280;5525;42.648;23.368;2023-05-08T05:18:16;94853.78;;;19.74;83.03
10946;BME280;5525;42.648;23.368;2023-05-08T05:20:44;94862.06;;;19.81;81.27
10946;BME280;5525;42.648;23.368;2023-05-08T05:23:12;94864.84;;;20.79;75.58
10946;BME280;5525;42.648;23.368;2023-05-08T05:25:38;94864.06;;;20.85;73.23
10946;BME280;5525;42.648;23.368;2023-05-08T05:28:05;94858.84;;;21.34;70.96
10946;BME280;5525;42.648;23.368;2023-05-08T05:30:32;94858.22;;;20.90;72.28
10946;BME280;5525;42.648;23.368;2023-05-08T05:32:58;94864.41;;;24.10;60.47
10946;BME280;5525;42.648;23.368;2023-05-08T05:35:25;94865.25;;;23.10;61.11
10946;BME280;5525;42.648;23.368;2023-05-08T05:37:53;94863.31;;;24.48;54.08
10946;BME280;5525;42.648;23.368;2023-05-08T05:40:19;94873.94;;;25.38;50.27
10946;BME280;5525;42.648;23.368;2023-05-08T05:42:49;94866.16;;;25.60;48.29
10946;BME280;5525;42.648;23.368;2023-05-08T05:45:16;94864.63;;;25.22;46.60
10946;BME280;5525;42.648;23.368;2023-05-08T05:47:43;94870.34;;;26.55;45.69
10946;BME280;5525;42.648;23.368;2023-05-08T05:50:10;94863.69;;;27.18;41.70
10946;BME280;5525;42.648;23.368;2023-05-08T05:52:37;94876.84;;;27.56;41.21
10946;BME280;5525;42.648;23.368;2023-05-08T05:55:06;94874.00;;;26.75;41.63
10946;BME280;5525;42.648;23.368;2023-05-08T05:57:33;94874.34;;;28.85;39.19
10946;BME280;5525;42.648;23.368;2023-05-08T05:59:59;94878.47;;;29.70;36.04
10946;BME280;5525;42.648;23.368;2023-05-08T06:02:26;94873.47;;;30.68;34.21
10946;BME280;5525;42.648;23.368;2023-05-08T06:04:53;94865.97;;;31.93;32.43
10946;BME280;5525;42.648;23.368;2023-05-08T06:07:19;94872.75;;;32.35;31.05
10946;BME280;5525;42.648;23.368;2023-05-08T06:09:46;94869.00;;;32.59;30.27
10946;BME280;5525;42.648;23.368;2023-05-08T06:12:14;94860.56;;;27.16;36.92
10946;BME280;5525;42.648;23.368;2023-05-08T06:14:42;94861.38;;;24.93;42.78
10946;BME280;5525;42.648;23.368;2023-05-08T06:17:09;94857.34;;;25.38;43.01
10946;BME280;5525;42.648;23.368;2023-05-08T06:19:35;94847.16;;;24.91;44.40
10946;BME280;5525;42.648;23.368;2023-05-08T06:22:02;94854.06;;;23.60;48.92
10946;BME280;5525;42.648;23.368;2023-05-08T06:24:29;94849.59;;;24.41;47.50
10946;BME280;5525;42.648;23.368;2023-05-08T06:26:56;94844.56;;;24.77;46.58
10946;BME280;5525;42.648;23.368;2023-05-08T06:29:24;94840.41;;;25.93;44.39
10946;BME280;5525;42.648;23.368;2023-05-08T06:31:50;94845.03;;;24.68;46.85
10946;BME280;5525;42.648;23.368;2023-05-08T06:34:17;94852.09;;;25.10;46.32
10946;BME280;5525;42.648;23.368;2023-05-08T06:36:44;94846.19;;;26.05;44.43
10946;BME280;5525;42.648;23.368;2023-05-08T06:39:10;94850.00;;;24.84;47.04
10946;BME280;5525;42.648;23.368;2023-05-08T06:41:37;94850.13;;;25.11;46.56
10946;BME280;5525;42.648;23.368;2023-05-08T06:44:04;94854.63;;;23.02;51.46
10946;BME280;5525;42.648;23.368;2023-05-08T06:46:32;94851.59;;;22.54;55.13
10946;BME280;5525;42.648;23.368;2023-05-08T06:48:58;94850.22;;;23.36;53.78
10946;BME280;5525;42.648;23.368;2023-05-08T06:51:25;94848.78;;;25.59;46.78
10946;BME280;5525;42.648;23.368;2023-05-08T06:53:52;94850.06;;;27.85;41.17
10946;BME280;5525;42.648;23.368;2023-05-08T06:56:18;94847.69;;;30.02;36.92
10946;BME280;5525;42.648;23.368;2023-05-08T06:58:45;94846.50;;;30.15;35.13
10946;BME280;5525;42.648;23.368;2023-05-08T07:01:12;94859.19;;;31.38;33.45
10946;BME280;5525;42.648;23.368;2023-05-08T07:03:40;94858.16;;;31.10;32.68
10946;BME280;5525;42.648;23.368;2023-05-08T07:06:07;94858.66;;;28.27;36.95
10946;BME280;5525;42.648;23.368;2023-05-08T07:08:34;94855.56;;;27.30;39.87
10946;BME280;5525;42.648;23.368;2023-05-08T07:11:01;94861.25;;;27.62;38.43
10946;BME280;5525;42.648;23.368;2023-05-08T07:13:28;94854.59;;;26.48;40.73
10946;BME280;5525;42.648;23.368;2023-05-08T07:15:55;94854.06;;;26.07;42.13
10946;BME280;5525;42.648;23.368;2023-05-08T07:18:22;94852.22;;;26.23;41.75
10946;BME280;5525;42.648;23.368;2023-05-08T07:20:50;94867.47;;;26.62;41.63
10946;BME280;5525;42.648;23.368;2023-05-08T07:23:17;94868.91;;;28.81;37.58
10946;BME280;5525;42.648;23.368;2023-05-08T07:25:44;94865.84;;;28.92;35.95
10946;BME280;5525;42.648;23.368;2023-05-08T07:28:11;94865.16;;;27.65;37.73
10946;BME280;5525;42.648;23.368;2023-05-08T07:30:37;94855.44;;;26.95;39.27
10946;BME280;5525;42.648;23.368;2023-05-08T07:33:04;94855.03;;;25.93;40.26
10946;BME280;5525;42.648;23.368;2023-05-08T07:35:31;94854.59;;;24.57;43.48
10946;BME280;5525;42.648;23.368;2023-05-08T07:37:59;94861.06;;;25.58;42.15
10946;BME280;5525;42.648;23.368;2023-05-08T07:40:26;94864.91;;;27.59;39.12
10946;BME280;5525;42.648;23.368;2023-05-08T07:42:52;94856.53;;;27.79;38.36
10946;BME280;5525;42.648;23.368;2023-05-08T07:45:19;94863.22;;;28.37;37.33
10946;BME280;5525;42.648;23.368;2023-05-08T07:47:50;94866.09;;;28.97;35.65
10946;BME280;5525;42.648;23.368;2023-05-08T07:50:17;94862.09;;;28.66;35.98
10946;BME280;5525;42.648;23.368;2023-05-08T07:52:44;94871.00;;;28.26;36.73
10946;BME280;5525;42.648;23.368;2023-05-08T07:55:12;94867.47;;;28.89;35.25
10946;BME280;5525;42.648;23.368;2023-05-08T07:57:40;94866.25;;;29.80;34.23
10946;BME280;5525;42.648;23.368;2023-05-08T08:00:09;94869.44;;;29.66;33.58
10946;BME280;5525;42.648;23.368;2023-05-08T08:02:37;94869.13;;;29.76;34.06
10946;BME280;5525;42.648;23.368;2023-05-08T08:05:04;94877.16;;;30.53;32.80
10946;BME280;5525;42.648;23.368;2023-05-08T08:07:31;94881.09;;;31.61;30.58
10946;BME280;5525;42.648;23.368;2023-05-08T08:09:58;94886.31;;;30.78;32.11
10946;BME280;5525;42.648;23.368;2023-05-08T08:12:26;94870.00;;;32.44;30.33
10946;BME280;5525;42.648;23.368;2023-05-08T08:14:53;94877.75;;;33.55;28.02
10946;BME280;5525;42.648;23.368;2023-05-08T08:17:20;94862.66;;;34.99;26.22
10946;BME280;5525;42.648;23.368;2023-05-08T08:19:47;94872.94;;;36.55;24.31
10946;BME280;5525;42.648;23.368;2023-05-08T08:22:14;94883.84;;;35.95;24.73
10946;BME280;5525;42.648;23.368;2023-05-08T08:24:41;94877.38;;;34.35;25.66
10946;BME280;5525;42.648;23.368;2023-05-08T08:27:07;94877.44;;;33.80;27.03
10946;BME280;5525;42.648;23.368;2023-05-08T08:29:35;94872.84;;;31.11;30.52
10946;BME280;5525;42.648;23.368;2023-05-08T08:32:02;94865.88;;;32.27;29.45
10946;BME280;5525;42.648;23.368;2023-05-08T08:34:29;94856.59;;;30.09;32.11
10946;BME280;5525;42.648;23.368;2023-05-08T08:36:55;94860.78;;;28.71;33.88
10946;BME280;5525;42.648;23.368;2023-05-08T08:39:22;94858.84;;;27.45;36.61
10946;BME280;5525;42.648;23.368;2023-05-08T08:41:49;94848.81;;;26.89;38.75
10946;BME280;5525;42.648;23.368;2023-05-08T08:44:15;94847.97;;;26.92;38.49
10946;BME280;5525;42.648;23.368;2023-05-08T08:46:49;94838.75;;;26.25;39.15
10946;BME280;5525;42.648;23.368;2023-05-08T08:49:18;94834.59;;;26.87;38.51
10946;BME280;5525;42.648;23.368;2023-05-08T08:51:49;94840.25;;;25.47;42.17
10946;BME280;5525;42.648;23.368;2023-05-08T08:54:20;94820.44;;;24.81;45.02
10946;BME280;5525;42.648;23.368;2023-05-08T08:56:49;94837.56;;;24.14;47.69
10946;BME280;5525;42.648;23.368;2023-05-08T08:59:16;94837.22;;;24.12;49.23
10946;BME280;5525;42.648;23.368;2023-05-08T09:01:47;94832.84;;;24.18;49.31
10946;BME280;5525;42.648;23.368;2023-05-08T09:04:16;94821.16;;;24.88;47.78
10946;BME280;5525;42.648;23.368;2023-05-08T09:06:43;94821.16;;;25.86;45.13
10946;BME280;5525;42.648;23.368;2023-05-08T09:09:11;94816.34;;;25.90;44.39
10946;BME280;5525;42.648;23.368;2023-05-08T09:11:39;94813.78;;;24.78;46.85
10946;BME280;5525;42.648;23.368;2023-05-08T09:14:06;94805.56;;;24.27;49.32
10946;BME280;5525;42.648;23.368;2023-05-08T09:16:32;94812.19;;;23.79;50.62
10946;BME280;5525;42.648;23.368;2023-05-08T09:19:01;94791.19;;;23.34;52.60
10946;BME280;5525;42.648;23.368;2023-05-08T09:21:29;94792.63;;;22.52;57.06
10946;BME280;5525;42.648;23.368;2023-05-08T09:23:56;94800.44;;;22.78;57.62
10946;BME280;5525;42.648;23.368;2023-05-08T09:26:27;94794.94;;;22.67;59.55
10946;BME280;5525;42.648;23.368;2023-05-08T09:29:07;94784.41;;;22.06;65.78
10946;BME280;5525;42.648;23.368;2023-05-08T09:31:34;94776.13;;;22.31;63.27
10946;BME280;5525;42.648;23.368;2023-05-08T09:34:03;94776.13;;;22.24;64.81
10946;BME280;5525;42.648;23.368;2023-05-08T09:36:30;94765.53;;;22.19;64.60
10946;BME280;5525;42.648;23.368;2023-05-08T09:38:59;94768.28;;;22.29;65.10
10946;BME280;5525;42.648;23.368;2023-05-08T09:41:26;94780.44;;;22.60;63.70
10946;BME280;5525;42.648;23.368;2023-05-08T09:44:00;94785.06;;;22.91;61.78
10946;BME280;5525;42.648;23.368;2023-05-08T09:46:27;94777.16;;;22.93;61.22
10946;BME280;5525;42.648;23.368;2023-05-08T09:48:55;94793.31;;;22.80;61.13
10946;BME280;5525;42.648;23.368;2023-05-08T09:51:24;94786.50;;;23.20;59.85
10946;BME280;5525;42.648;23.368;2023-05-08T09:53:51;94801.81;;;23.32;59.55
10946;BME280;5525;42.648;23.368;2023-05-08T09:56:29;94810.28;;;23.65;59.20
10946;BME280;5525;42.648;23.368;2023-05-08T09:58:56;94782.63;;;23.79;57.73
10946;BME280;5525;42.648;23.368;2023-05-08T10:01:30;94798.63;;;24.49;56.44
10946;BME280;5525;42.648;23.368;2023-05-08T10:03:58;94799.44;;;25.24;53.76
10946;BME280;5525;42.648;23.368;2023-05-08T10:06:26;94786.56;;;26.01;50.73
10946;BME280;5525;42.648;23.368;2023-05-08T10:09:07;94789.31;;;26.01;50.06
10946;BME280;5525;42.648;23.368;2023-05-08T10:11:34;94793.00;;;25.91;49.05
10946;BME280;5525;42.648;23.368;2023-05-08T10:14:01;94790.31;;;24.94;52.11
10946;BME280;5525;42.648;23.368;2023-05-08T10:16:29;94783.91;;;25.64;50.80
10946;BME280;5525;42.648;23.368;2023-05-08T10:19:00;94780.63;;;26.48;48.41
10946;BME280;5525;42.648;23.368;2023-05-08T10:21:34;94769.56;;;26.25;48.18
10946;BME280;5525;42.648;23.368;2023-05-08T10:24:05;94780.66;;;25.99;49.77
10946;BME280;5525;42.648;23.368;2023-05-08T10:26:35;94778.16;;;25.51;50.58
10946;BME280;5525;42.648;23.368;2023-05-08T10:29:06;94758.97;;;25.07;52.38
10946;BME280;5525;42.648;23.368;2023-05-08T10:31:34;94759.19;;;25.53;52.19
10946;BME280;5525;42.648;23.368;2023-05-08T10:34:02;94762.38;;;26.05;50.38
10946;BME280;5525;42.648;23.368;2023-05-08T10:36:31;94759.69;;;26.24;50.66
10946;BME280;5525;42.648;23.368;2023-05-08T10:38:58;94759.41;;;26.85;48.13
10946;BME280;5525;42.648;23.368;2023-05-08T10:41:25;94762.53;;;25.68;50.50
10946;BME280;5525;42.648;23.368;2023-05-08T10:43:52;94756.66;;;26.62;49.23
10946;BME280;5525;42.648;23.368;2023-05-08T10:46:27;94760.19;;;28.47;45.58
10946;BME280;5525;42.648;23.368;2023-05-08T10:49:02;94774.75;;;28.51;44.09
10946;BME280;5525;42.648;23.368;2023-05-08T10:51:37;94754.78;;;28.72;42.45
10946;BME280;5525;42.648;23.368;2023-05-08T10:54:11;94741.47;;;29.08;41.66
10946;BME280;5525;42.648;23.368;2023-05-08T10:56:39;94751.91;;;27.95;43.78
10946;BME280;5525;42.648;23.368;2023-05-08T10:59:05;94748.69;;;27.45;45.73
10946;BME280;5525;42.648;23.368;2023-05-08T11:01:32;94737.63;;;27.26;45.69
10946;BME280;5525;42.648;23.368;2023-05-08T11:03:59;94744.22;;;27.32;45.61
10946;BME280;5525;42.648;23.368;2023-05-08T11:06:43;94745.56;;;27.04;46.86
10946;BME280;5525;42.648;23.368;2023-05-08T11:09:17;94739.19;;;27.27;46.16
10946;BME280;5525;42.648;23.368;2023-05-08T11:11:51;94739.84;;;30.15;41.47
10946;BME280;5525;42.648;23.368;2023-05-08T11:14:21;94735.31;;;30.67;38.21
10946;BME280;5525;42.648;23.368;2023-05-08T11:17:05;94732.28;;;29.24;40.52
10946;BME280;5525;42.648;23.368;2023-05-08T11:19:32;94730.59;;;28.09;42.29
10946;BME280;5525;42.648;23.368;2023-05-08T11:22:28;94719.63;;;28.66;41.04
10946;BME280;5525;42.648;23.368;2023-05-08T11:24:57;94731.31;;;31.76;36.46
10946;BME280;5525;42.648;23.368;2023-05-08T11:27:38;94726.47;;;31.68;35.05
10946;BME280;5525;42.648;23.368;2023-05-08T11:30:23;94716.94;;;31.56;34.87
10946;BME280;5525;42.648;23.368;2023-05-08T11:33:28;94710.34;;;31.20;35.61
10946;BME280;5525;42.648;23.368;2023-05-08T11:35:57;94702.69;;;32.24;34.00
10946;BME280;5525;42.648;23.368;2023-05-08T11:38:30;94694.72;;;32.90;32.73
10946;BME280;5525;42.648;23.368;2023-05-08T11:40:59;94706.94;;;33.37;31.89
10946;BME280;5525;42.648;23.368;2023-05-08T11:46:51;94681.44;;;30.83;34.90
10946;BME280;5525;42.648;23.368;2023-05-08T11:49:19;94656.03;;;30.34;35.64
10946;BME280;5525;42.648;23.368;2023-05-08T11:51:48;94674.44;;;30.66;35.40
10946;BME280;5525;42.648;23.368;2023-05-08T11:54:21;94666.19;;;30.75;35.87
10946;BME280;5525;42.648;23.368;2023-05-08T11:56:49;94667.13;;;29.63;37.36
10946;BME280;5525;42.648;23.368;2023-05-08T11:59:16;94660.44;;;28.94;39.04
10946;BME280;5525;42.648;23.368;2023-05-08T12:01:43;94660.91;;;28.64;39.12
10946;BME280;5525;42.648;23.368;2023-05-08T12:04:11;94647.00;;;27.39;40.95
10946;BME280;5525;42.648;23.368;2023-05-08T12:06:39;94649.53;;;26.94;42.53
10946;BME280;5525;42.648;23.368;2023-05-08T12:09:10;94652.56;;;27.19;42.49
10946;BME280;5525;42.648;23.368;2023-05-08T12:11:38;94645.88;;;26.62;43.33
10946;BME280;5525;42.648;23.368;2023-05-08T12:14:08;94630.75;;;26.86;42.69
10946;BME280;5525;42.648;23.368;2023-05-08T12:16:35;94633.75;;;26.75;42.48
10946;BME280;5525;42.648;23.368;2023-05-08T12:19:03;94638.94;;;27.09;42.91
10946;BME280;5525;42.648;23.368;2023-05-08T12:21:30;94641.59;;;26.96;42.94
10946;BME280;5525;42.648;23.368;2023-05-08T12:23:56;94638.66;;;27.39;41.87
10946;BME280;5525;42.648;23.368;2023-05-08T12:26:23;94637.81;;;27.26;43.54
10946;BME280;5525;42.648;23.368;2023-05-08T12:28:55;94637.72;;;27.10;44.94
10946;BME280;5525;42.648;23.368;2023-05-08T12:31:22;94622.28;;;26.11;45.28
10946;BME280;5525;42.648;23.368;2023-05-08T12:33:49;94633.19;;;25.52;46.90
10946;BME280;5525;42.648;23.368;2023-05-08T12:36:16;94622.03;;;25.06;48.76
10946;BME280;5525;42.648;23.368;2023-05-08T12:38:42;94620.91;;;24.73;49.85
10946;BME280;5525;42.648;23.368;2023-05-08T12:41:09;94611.28;;;24.51;49.23
10946;BME280;5525;42.648;23.368;2023-05-08T12:43:36;94617.22;;;24.16;51.32
10946;BME280;5525;42.648;23.368;2023-05-08T12:46:10;94616.38;;;23.79;53.23
10946;BME280;5525;42.648;23.368;2023-05-08T12:48:38;94613.09;;;23.54;54.15
10946;BME280;5525;42.648;23.368;2023-05-08T12:51:05;94615.41;;;23.59;55.42
10946;BME280;5525;42.648;23.368;2023-05-08T12:53:32;94611.94;;;23.92;54.92
10946;BME280;5525;42.648;23.368;2023-05-08T12:56:01;94606.50;;;23.85;55.87
10946;BME280;5525;42.648;23.368;2023-05-08T12:58:29;94598.16;;;23.92;54.58
10946;BME280;5525;42.648;23.368;2023-05-08T13:01:07;94605.97;;;23.56;55.99
10946;BME280;5525;42.648;23.368;2023-05-08T13:03:37;94602.13;;;23.47;57.73
10946;BME280;5525;42.648;23.368;2023-05-08T13:06:04;94596.31;;;23.34;59.44
10946;BME280;5525;42.648;23.368;2023-05-08T13:08:32;94589.72;;;23.17;63.41